sensor_id;sensor_type;location;lat;lon;timestamp;P1;durP1;ratioP1;P2;durP2;ratioP2
60336;SDS011;46978;50.288;28.624;2024-01-11T00:00:45;36.63;;;18.56;;
60336;SDS011;46978;50.288;28.624;2024-01-11T00:01:48;37.28;;;19.66;;
60336;SDS011;46978;50.288;28.624;2024-01-11T00:02:50;37.32;;;19.39;;
60336;SDS011;46978;50.288;28.624;2024-01-11T00:03:52;34.74;;;19.91;;
60336;SDS011;46978;50.288;28.624;2024-01-11T00:04:53;36.29;;;19.19;;
60336;SDS011;46978;50.288;28.624;2024-01-11T00:05:55;34.61;;;18.49;;
60336;SDS011;46978;50.288;28.624;2024-01-11T00:06:57;35.35;;;18.95;;
60336;SDS011;46978;50.288;28.624;2024-01-11T00:07:58;44.65;;;22.37;;
60336;SDS011;46978;50.288;28.624;2024-01-11T00:09:00;36.93;;;20.56;;
60336;SDS011;46978;50.288;28.624;2024-01-11T00:10:02;38.02;;;21.50;;
60336;SDS011;46978;50.288;28.624;2024-01-11T00:11:05;36.79;;;19.91;;
60336;SDS011;46978;50.288;28.624;2024-01-11T00:12:07;36.43;;;18.78;;
60336;SDS011;46978;50.288;28.624;2024-01-11T00:13:09;33.17;;;16.53;;
60336;SDS011;46978;50.288;28.624;2024-01-11T00:14:10;32.02;;;16.96;;
60336;SDS011;46978;50.288;28.624;2024-01-11T00:15:12;35.30;;;19.38;;
60336;SDS011;46978;50.288;28.624;2024-01-11T00:16:14;33.23;;;18.10;;
60336;SDS011;46978;50.288;28.624;2024-01-11T00:17:16;31.77;;;17.33;;
60336;SDS011;46978;50.288;28.624;2024-01-11T00:18:18;35.85;;;18.63;;
60336;SDS011;46978;50.288;28.624;2024-01-11T00:19:20;35.23;;;18.07;;
60336;SDS011;46978;50.288;28.624;2024-01-11T00:20:22;34.25;;;18.03;;
60336;SDS011;46978;50.288;28.624;2024-01-11T00:21:24;35.29;;;18.86;;
60336;SDS011;46978;50.288;28.624;2024-01-11T00:22:25;36.05;;;19.84;;
60336;SDS011;46978;50.288;28.624;2024-01-11T00:23:27;31.49;;;16.83;;
60336;SDS011;46978;50.288;28.624;2024-01-11T00:24:28;32.07;;;17.02;;
60336;SDS011;46978;50.288;28.624;2024-01-11T00:25:30;36.36;;;18.98;;
60336;SDS011;46978;50.288;28.624;2024-01-11T00:26:32;36.61;;;18.15;;
60336;SDS011;46978;50.288;28.624;2024-01-11T00:27:34;35.76;;;18.91;;
60336;SDS011;46978;50.288;28.624;2024-01-11T00:28:35;35.66;;;17.96;;
60336;SDS011;46978;50.288;28.624;2024-01-11T00:29:37;34.42;;;18.37;;
60336;SDS011;46978;50.288;28.624;2024-01-11T00:30:39;35.10;;;17.15;;
60336;SDS011;46978;50.288;28.624;2024-01-11T00:31:40;31.30;;;19.12;;
60336;SDS011;46978;50.288;28.624;2024-01-11T00:32:42;35.57;;;17.97;;
60336;SDS011;46978;50.288;28.624;2024-01-11T00:33:44;32.56;;;17.49;;
60336;SDS011;46978;50.288;28.624;2024-01-11T00:34:46;36.25;;;18.07;;
60336;SDS011;46978;50.288;28.624;2024-01-11T00:35:47;34.14;;;19.19;;
60336;SDS011;46978;50.288;28.624;2024-01-11T00:36:49;34.06;;;18.09;;
60336;SDS011;46978;50.288;28.624;2024-01-11T00:37:51;31.76;;;17.34;;
60336;SDS011;46978;50.288;28.624;2024-01-11T00:38:52;31.58;;;18.23;;
60336;SDS011;46978;50.288;28.624;2024-01-11T00:39:54;32.57;;;18.23;;
60336;SDS011;46978;50.288;28.624;2024-01-11T00:40:56;31.11;;;16.99;;
60336;SDS011;46978;50.288;28.624;2024-01-11T00:41:58;34.04;;;17.13;;
60336;SDS011;46978;50.288;28.624;2024-01-11T00:42:59;30.99;;;16.36;;
60336;SDS011;46978;50.288;28.624;2024-01-11T00:44:01;29.09;;;16.50;;
60336;SDS011;46978;50.288;28.624;2024-01-11T00:45:03;34.04;;;17.65;;
60336;SDS011;46978;50.288;28.624;2024-01-11T00:46:06;33.66;;;17.90;;
60336;SDS011;46978;50.288;28.624;2024-01-11T00:47:07;35.80;;;18.35;;
60336;SDS011;46978;50.288;28.624;2024-01-11T00:48:09;34.54;;;17.88;;
60336;SDS011;46978;50.288;28.624;2024-01-11T00:49:11;35.58;;;18.37;;
60336;SDS011;46978;50.288;28.624;2024-01-11T00:50:13;28.32;;;16.41;;
60336;SDS011;46978;50.288;28.624;2024-01-11T00:51:15;35.45;;;18.82;;
60336;SDS011;46978;50.288;28.624;2024-01-11T00:52:17;36.11;;;17.72;;
60336;SDS011;46978;50.288;28.624;2024-01-11T00:53:18;31.24;;;18.20;;
60336;SDS011;46978;50.288;28.624;2024-01-11T00:54:20;37.51;;;19.59;;
60336;SDS011;46978;50.288;28.624;2024-01-11T00:55:23;37.99;;;19.92;;
60336;SDS011;46978;50.288;28.624;2024-01-11T00:56:25;44.11;;;21.53;;
60336;SDS011;46978;50.288;28.624;2024-01-11T00:57:27;37.14;;;20.31;;
60336;SDS011;46978;50.288;28.624;2024-01-11T00:58:28;35.07;;;19.09;;
60336;SDS011;46978;50.288;28.624;2024-01-11T00:59:30;34.46;;;19.07;;
60336;SDS011;46978;50.288;28.624;2024-01-11T01:00:32;35.49;;;20.77;;
60336;SDS011;46978;50.288;28.624;2024-01-11T01:01:34;35.37;;;19.30;;
60336;SDS011;46978;50.288;28.624;2024-01-11T01:02:35;36.85;;;18.47;;
60336;SDS011;46978;50.288;28.624;2024-01-11T01:03:37;33.32;;;16.79;;
60336;SDS011;46978;50.288;28.624;2024-01-11T01:04:39;32.97;;;16.59;;
60336;SDS011;46978;50.288;28.624;2024-01-11T01:05:41;33.62;;;18.28;;
60336;SDS011;46978;50.288;28.624;2024-01-11T01:06:43;33.11;;;18.43;;
60336;SDS011;46978;50.288;28.624;2024-01-11T01:07:45;36.36;;;18.80;;
60336;SDS011;46978;50.288;28.624;2024-01-11T01:08:47;34.34;;;17.19;;
60336;SDS011;46978;50.288;28.624;2024-01-11T01:09:48;33.84;;;18.25;;
60336;SDS011;46978;50.288;28.624;2024-01-11T01:10:50;31.89;;;17.58;;
60336;SDS011;46978;50.288;28.624;2024-01-11T01:11:52;35.18;;;17.71;;
60336;SDS011;46978;50.288;28.624;2024-01-11T01:12:54;34.21;;;18.08;;
60336;SDS011;46978;50.288;28.624;2024-01-11T01:13:55;30.89;;;17.08;;
60336;SDS011;46978;50.288;28.624;2024-01-11T01:14:57;32.36;;;17.49;;
60336;SDS011;46978;50.288;28.624;2024-01-11T01:15:59;36.46;;;17.69;;
60336;SDS011;46978;50.288;28.624;2024-01-11T01:17:00;37.49;;;18.23;;
60336;SDS011;46978;50.288;28.624;2024-01-11T01:18:02;35.57;;;17.06;;
60336;SDS011;46978;50.288;28.624;2024-01-11T01:19:05;34.00;;;17.99;;
60336;SDS011;46978;50.288;28.624;2024-01-11T01:20:07;32.40;;;16.66;;
60336;SDS011;46978;50.288;28.624;2024-01-11T01:21:10;35.28;;;18.58;;
60336;SDS011;46978;50.288;28.624;2024-01-11T01:22:11;36.26;;;19.02;;
60336;SDS011;46978;50.288;28.624;2024-01-11T01:23:13;37.59;;;17.40;;
60336;SDS011;46978;50.288;28.624;2024-01-11T01:24:14;32.51;;;17.46;;
60336;SDS011;46978;50.288;28.624;2024-01-11T01:25:16;32.99;;;16.84;;
60336;SDS011;46978;50.288;28.624;2024-01-11T01:26:18;37.31;;;19.12;;
60336;SDS011;46978;50.288;28.624;2024-01-11T01:27:20;36.06;;;18.48;;
60336;SDS011;46978;50.288;28.624;2024-01-11T01:28:22;36.36;;;18.34;;
60336;SDS011;46978;50.288;28.624;2024-01-11T01:29:23;37.37;;;18.18;;
60336;SDS011;46978;50.288;28.624;2024-01-11T01:30:27;29.95;;;16.81;;
60336;SDS011;46978;50.288;28.624;2024-01-11T01:31:29;31.60;;;17.28;;
60336;SDS011;46978;50.288;28.624;2024-01-11T01:32:30;34.56;;;18.01;;
60336;SDS011;46978;50.288;28.624;2024-01-11T01:33:32;34.30;;;18.28;;
60336;SDS011;46978;50.288;28.624;2024-01-11T01:34:34;37.28;;;19.04;;
60336;SDS011;46978;50.288;28.624;2024-01-11T01:35:35;37.29;;;18.94;;
60336;SDS011;46978;50.288;28.624;2024-01-11T01:36:37;34.11;;;18.57;;
60336;SDS011;46978;50.288;28.624;2024-01-11T01:37:39;35.21;;;19.05;;
60336;SDS011;46978;50.288;28.624;2024-01-11T01:38:40;36.43;;;17.07;;
60336;SDS011;46978;50.288;28.624;2024-01-11T01:39:42;38.89;;;18.99;;
60336;SDS011;46978;50.288;28.624;2024-01-11T01:40:44;32.74;;;18.31;;
60336;SDS011;46978;50.288;28.624;2024-01-11T01:41:46;38.20;;;19.61;;
60336;SDS011;46978;50.288;28.624;2024-01-11T01:42:48;37.61;;;17.69;;
60336;SDS011;46978;50.288;28.624;2024-01-11T01:43:50;36.06;;;19.49;;
60336;SDS011;46978;50.288;28.624;2024-01-11T01:44:52;36.44;;;19.24;;
60336;SDS011;46978;50.288;28.624;2024-01-11T01:45:53;38.97;;;19.85;;
60336;SDS011;46978;50.288;28.624;2024-01-11T01:46:55;34.98;;;18.05;;
60336;SDS011;46978;50.288;28.624;2024-01-11T01:47:58;32.92;;;17.72;;
60336;SDS011;46978;50.288;28.624;2024-01-11T01:48:59;40.29;;;19.54;;
60336;SDS011;46978;50.288;28.624;2024-01-11T01:50:02;33.27;;;16.69;;
60336;SDS011;46978;50.288;28.624;2024-01-11T01:51:06;42.95;;;20.91;;
60336;SDS011;46978;50.288;28.624;2024-01-11T01:52:08;38.79;;;18.77;;
60336;SDS011;46978;50.288;28.624;2024-01-11T01:53:11;34.31;;;19.43;;
60336;SDS011;46978;50.288;28.624;2024-01-11T01:54:14;33.12;;;17.27;;
60336;SDS011;46978;50.288;28.624;2024-01-11T01:55:17;34.64;;;18.14;;
60336;SDS011;46978;50.288;28.624;2024-01-11T01:56:21;35.15;;;18.37;;
60336;SDS011;46978;50.288;28.624;2024-01-11T01:57:22;40.21;;;18.99;;
60336;SDS011;46978;50.288;28.624;2024-01-11T01:58:24;45.43;;;22.46;;
60336;SDS011;46978;50.288;28.624;2024-01-11T01:59:26;39.80;;;20.04;;
60336;SDS011;46978;50.288;28.624;2024-01-11T02:00:31;37.44;;;19.81;;
60336;SDS011;46978;50.288;28.624;2024-01-11T02:01:33;32.01;;;17.97;;
60336;SDS011;46978;50.288;28.624;2024-01-11T02:02:35;39.07;;;20.08;;
60336;SDS011;46978;50.288;28.624;2024-01-11T02:03:37;34.33;;;17.79;;
60336;SDS011;46978;50.288;28.624;2024-01-11T02:04:39;37.42;;;18.89;;
60336;SDS011;46978;50.288;28.624;2024-01-11T02:05:41;35.28;;;18.55;;
60336;SDS011;46978;50.288;28.624;2024-01-11T02:06:47;36.61;;;18.61;;
60336;SDS011;46978;50.288;28.624;2024-01-11T02:07:49;39.42;;;18.90;;
60336;SDS011;46978;50.288;28.624;2024-01-11T02:08:51;34.01;;;18.34;;
60336;SDS011;46978;50.288;28.624;2024-01-11T02:09:54;34.92;;;19.46;;
60336;SDS011;46978;50.288;28.624;2024-01-11T02:10:57;33.67;;;18.88;;
60336;SDS011;46978;50.288;28.624;2024-01-11T02:12:00;40.84;;;20.51;;
60336;SDS011;46978;50.288;28.624;2024-01-11T02:13:04;37.83;;;19.47;;
60336;SDS011;46978;50.288;28.624;2024-01-11T02:14:06;36.43;;;19.55;;
60336;SDS011;46978;50.288;28.624;2024-01-11T02:15:09;37.49;;;19.61;;
60336;SDS011;46978;50.288;28.624;2024-01-11T02:16:12;39.89;;;19.90;;
60336;SDS011;46978;50.288;28.624;2024-01-11T02:17:14;41.18;;;21.31;;
60336;SDS011;46978;50.288;28.624;2024-01-11T02:18:16;38.84;;;21.27;;
60336;SDS011;46978;50.288;28.624;2024-01-11T02:19:18;38.25;;;21.53;;
60336;SDS011;46978;50.288;28.624;2024-01-11T02:20:21;40.21;;;19.98;;
60336;SDS011;46978;50.288;28.624;2024-01-11T02:21:23;44.23;;;22.01;;
60336;SDS011;46978;50.288;28.624;2024-01-11T02:22:31;38.99;;;21.63;;
60336;SDS011;46978;50.288;28.624;2024-01-11T02:23:31;42.22;;;20.59;;
60336;SDS011;46978;50.288;28.624;2024-01-11T02:24:33;38.53;;;20.26;;
60336;SDS011;46978;50.288;28.624;2024-01-11T02:25:37;43.59;;;21.02;;
60336;SDS011;46978;50.288;28.624;2024-01-11T02:26:57;39.66;;;20.59;;
60336;SDS011;46978;50.288;28.624;2024-01-11T02:28:02;39.27;;;20.36;;
60336;SDS011;46978;50.288;28.624;2024-01-11T02:29:03;39.88;;;20.36;;
60336;SDS011;46978;50.288;28.624;2024-01-11T02:30:06;39.47;;;21.41;;
60336;SDS011;46978;50.288;28.624;2024-01-11T02:31:08;42.92;;;22.32;;
60336;SDS011;46978;50.288;28.624;2024-01-11T02:32:10;40.95;;;21.09;;
60336;SDS011;46978;50.288;28.624;2024-01-11T02:33:12;39.91;;;21.57;;
60336;SDS011;46978;50.288;28.624;2024-01-11T02:34:14;40.37;;;22.41;;
60336;SDS011;46978;50.288;28.624;2024-01-11T02:35:16;39.35;;;19.67;;
60336;SDS011;46978;50.288;28.624;2024-01-11T02:36:20;39.57;;;20.65;;
60336;SDS011;46978;50.288;28.624;2024-01-11T02:37:23;37.68;;;20.22;;
60336;SDS011;46978;50.288;28.624;2024-01-11T02:38:24;40.07;;;20.92;;
60336;SDS011;46978;50.288;28.624;2024-01-11T02:40:48;42.97;;;20.81;;
60336;SDS011;46978;50.288;28.624;2024-01-11T02:41:51;34.91;;;18.39;;
60336;SDS011;46978;50.288;28.624;2024-01-11T02:42:55;36.04;;;20.55;;
60336;SDS011;46978;50.288;28.624;2024-01-11T02:43:57;41.12;;;20.46;;
60336;SDS011;46978;50.288;28.624;2024-01-11T02:44:59;38.19;;;20.81;;
60336;SDS011;46978;50.288;28.624;2024-01-11T02:46:02;39.47;;;20.00;;
60336;SDS011;46978;50.288;28.624;2024-01-11T02:47:04;41.13;;;20.51;;
60336;SDS011;46978;50.288;28.624;2024-01-11T02:48:06;39.42;;;21.46;;
60336;SDS011;46978;50.288;28.624;2024-01-11T02:49:07;38.11;;;20.23;;
60336;SDS011;46978;50.288;28.624;2024-01-11T02:50:09;40.03;;;20.07;;
60336;SDS011;46978;50.288;28.624;2024-01-11T02:51:11;38.54;;;19.95;;
60336;SDS011;46978;50.288;28.624;2024-01-11T02:52:13;45.57;;;21.19;;
60336;SDS011;46978;50.288;28.624;2024-01-11T02:53:14;43.44;;;22.51;;
60336;SDS011;46978;50.288;28.624;2024-01-11T02:54:16;38.56;;;20.24;;
60336;SDS011;46978;50.288;28.624;2024-01-11T02:55:20;37.80;;;19.29;;
60336;SDS011;46978;50.288;28.624;2024-01-11T02:56:22;41.93;;;20.65;;
60336;SDS011;46978;50.288;28.624;2024-01-11T02:57:24;38.56;;;20.61;;
60336;SDS011;46978;50.288;28.624;2024-01-11T02:58:26;40.92;;;19.95;;
60336;SDS011;46978;50.288;28.624;2024-01-11T02:59:27;34.21;;;18.76;;
60336;SDS011;46978;50.288;28.624;2024-01-11T03:00:29;38.07;;;20.47;;
60336;SDS011;46978;50.288;28.624;2024-01-11T03:01:31;38.76;;;20.64;;
60336;SDS011;46978;50.288;28.624;2024-01-11T03:02:33;40.27;;;21.94;;
60336;SDS011;46978;50.288;28.624;2024-01-11T03:03:35;37.19;;;19.82;;
60336;SDS011;46978;50.288;28.624;2024-01-11T03:04:36;40.37;;;20.34;;
60336;SDS011;46978;50.288;28.624;2024-01-11T03:05:38;39.91;;;20.11;;
60336;SDS011;46978;50.288;28.624;2024-01-11T03:06:40;38.03;;;20.20;;
60336;SDS011;46978;50.288;28.624;2024-01-11T03:07:41;39.05;;;19.70;;
60336;SDS011;46978;50.288;28.624;2024-01-11T03:08:43;40.39;;;21.47;;
60336;SDS011;46978;50.288;28.624;2024-01-11T03:09:45;39.53;;;20.15;;
60336;SDS011;46978;50.288;28.624;2024-01-11T03:10:47;36.86;;;19.19;;
60336;SDS011;46978;50.288;28.624;2024-01-11T03:11:48;42.14;;;21.26;;
60336;SDS011;46978;50.288;28.624;2024-01-11T03:12:50;38.24;;;20.91;;
60336;SDS011;46978;50.288;28.624;2024-01-11T03:13:52;37.31;;;19.50;;
60336;SDS011;46978;50.288;28.624;2024-01-11T03:14:53;41.73;;;20.53;;
60336;SDS011;46978;50.288;28.624;2024-01-11T03:15:55;35.31;;;20.59;;
60336;SDS011;46978;50.288;28.624;2024-01-11T03:16:57;39.26;;;19.84;;
60336;SDS011;46978;50.288;28.624;2024-01-11T03:17:59;39.68;;;20.01;;
60336;SDS011;46978;50.288;28.624;2024-01-11T03:19:00;36.85;;;19.39;;
60336;SDS011;46978;50.288;28.624;2024-01-11T03:20:03;38.91;;;19.43;;
60336;SDS011;46978;50.288;28.624;2024-01-11T03:21:05;38.85;;;19.22;;
60336;SDS011;46978;50.288;28.624;2024-01-11T03:22:06;38.99;;;19.21;;
60336;SDS011;46978;50.288;28.624;2024-01-11T03:23:08;36.84;;;18.45;;
60336;SDS011;46978;50.288;28.624;2024-01-11T03:24:10;40.15;;;20.77;;
60336;SDS011;46978;50.288;28.624;2024-01-11T03:25:12;38.66;;;19.16;;
60336;SDS011;46978;50.288;28.624;2024-01-11T03:26:18;36.23;;;18.61;;
60336;SDS011;46978;50.288;28.624;2024-01-11T03:27:20;38.43;;;19.97;;
60336;SDS011;46978;50.288;28.624;2024-01-11T03:28:23;36.03;;;17.73;;
60336;SDS011;46978;50.288;28.624;2024-01-11T03:29:24;34.85;;;19.09;;
60336;SDS011;46978;50.288;28.624;2024-01-11T03:30:27;40.44;;;19.78;;
60336;SDS011;46978;50.288;28.624;2024-01-11T03:31:29;36.19;;;18.92;;
60336;SDS011;46978;50.288;28.624;2024-01-11T03:32:31;32.80;;;19.33;;
60336;SDS011;46978;50.288;28.624;2024-01-11T03:33:32;37.42;;;18.94;;
60336;SDS011;46978;50.288;28.624;2024-01-11T03:34:34;40.67;;;20.03;;
60336;SDS011;46978;50.288;28.624;2024-01-11T03:35:36;42.96;;;21.04;;
60336;SDS011;46978;50.288;28.624;2024-01-11T03:36:38;37.57;;;19.75;;
60336;SDS011;46978;50.288;28.624;2024-01-11T03:37:40;34.93;;;18.54;;
60336;SDS011;46978;50.288;28.624;2024-01-11T03:38:42;34.84;;;18.26;;
60336;SDS011;46978;50.288;28.624;2024-01-11T03:39:43;41.36;;;19.20;;
60336;SDS011;46978;50.288;28.624;2024-01-11T03:40:45;39.01;;;19.50;;
60336;SDS011;46978;50.288;28.624;2024-01-11T03:41:47;41.67;;;20.04;;
60336;SDS011;46978;50.288;28.624;2024-01-11T03:42:49;38.89;;;19.49;;
60336;SDS011;46978;50.288;28.624;2024-01-11T03:43:50;38.82;;;20.36;;
60336;SDS011;46978;50.288;28.624;2024-01-11T03:44:52;40.03;;;19.16;;
60336;SDS011;46978;50.288;28.624;2024-01-11T03:45:54;35.56;;;18.56;;
60336;SDS011;46978;50.288;28.624;2024-01-11T03:46:55;40.61;;;19.74;;
60336;SDS011;46978;50.288;28.624;2024-01-11T03:47:57;47.36;;;20.27;;
60336;SDS011;46978;50.288;28.624;2024-01-11T03:48:59;42.69;;;20.98;;
60336;SDS011;46978;50.288;28.624;2024-01-11T03:50:00;38.53;;;20.69;;
60336;SDS011;46978;50.288;28.624;2024-01-11T03:51:02;36.73;;;19.91;;
60336;SDS011;46978;50.288;28.624;2024-01-11T03:52:05;43.45;;;19.09;;
60336;SDS011;46978;50.288;28.624;2024-01-11T03:53:07;42.57;;;20.78;;
60336;SDS011;46978;50.288;28.624;2024-01-11T03:54:09;39.74;;;20.01;;
60336;SDS011;46978;50.288;28.624;2024-01-11T03:55:10;42.99;;;20.84;;
60336;SDS011;46978;50.288;28.624;2024-01-11T03:56:13;43.25;;;21.38;;
60336;SDS011;46978;50.288;28.624;2024-01-11T03:57:14;37.74;;;19.73;;
60336;SDS011;46978;50.288;28.624;2024-01-11T03:58:16;41.53;;;20.72;;
60336;SDS011;46978;50.288;28.624;2024-01-11T03:59:18;39.34;;;20.91;;
60336;SDS011;46978;50.288;28.624;2024-01-11T04:00:20;42.43;;;20.60;;
60336;SDS011;46978;50.288;28.624;2024-01-11T04:01:22;38.81;;;20.82;;
60336;SDS011;46978;50.288;28.624;2024-01-11T04:02:25;46.99;;;20.46;;
60336;SDS011;46978;50.288;28.624;2024-01-11T04:03:27;40.83;;;20.96;;
60336;SDS011;46978;50.288;28.624;2024-01-11T04:04:29;41.51;;;21.11;;
60336;SDS011;46978;50.288;28.624;2024-01-11T04:05:30;41.32;;;22.79;;
60336;SDS011;46978;50.288;28.624;2024-01-11T04:06:32;39.32;;;21.41;;
60336;SDS011;46978;50.288;28.624;2024-01-11T04:07:34;43.44;;;21.43;;
60336;SDS011;46978;50.288;28.624;2024-01-11T04:08:36;41.34;;;20.92;;
60336;SDS011;46978;50.288;28.624;2024-01-11T04:09:38;42.34;;;20.94;;
60336;SDS011;46978;50.288;28.624;2024-01-11T04:10:40;43.09;;;21.57;;
60336;SDS011;46978;50.288;28.624;2024-01-11T04:11:41;42.66;;;21.43;;
60336;SDS011;46978;50.288;28.624;2024-01-11T04:12:43;43.40;;;20.97;;
60336;SDS011;46978;50.288;28.624;2024-01-11T04:13:45;46.19;;;23.62;;
60336;SDS011;46978;50.288;28.624;2024-01-11T04:14:46;42.39;;;21.47;;
60336;SDS011;46978;50.288;28.624;2024-01-11T04:15:48;46.28;;;22.78;;
60336;SDS011;46978;50.288;28.624;2024-01-11T04:16:50;47.15;;;22.62;;
60336;SDS011;46978;50.288;28.624;2024-01-11T04:17:51;43.39;;;23.21;;
60336;SDS011;46978;50.288;28.624;2024-01-11T04:18:53;42.65;;;20.73;;
60336;SDS011;46978;50.288;28.624;2024-01-11T04:19:55;45.06;;;21.61;;
60336;SDS011;46978;50.288;28.624;2024-01-11T04:20:56;42.36;;;21.94;;
60336;SDS011;46978;50.288;28.624;2024-01-11T04:21:58;44.64;;;22.39;;
60336;SDS011;46978;50.288;28.624;2024-01-11T04:23:00;47.06;;;22.81;;
60336;SDS011;46978;50.288;28.624;2024-01-11T04:24:01;46.07;;;19.48;;
60336;SDS011;46978;50.288;28.624;2024-01-11T04:25:03;42.51;;;21.38;;
60336;SDS011;46978;50.288;28.624;2024-01-11T04:26:06;39.04;;;20.14;;
60336;SDS011;46978;50.288;28.624;2024-01-11T04:27:08;44.11;;;20.62;;
60336;SDS011;46978;50.288;28.624;2024-01-11T04:28:10;40.02;;;21.26;;
60336;SDS011;46978;50.288;28.624;2024-01-11T04:29:11;42.93;;;22.46;;
60336;SDS011;46978;50.288;28.624;2024-01-11T04:30:13;39.37;;;20.56;;
60336;SDS011;46978;50.288;28.624;2024-01-11T04:31:15;39.79;;;20.01;;
60336;SDS011;46978;50.288;28.624;2024-01-11T04:32:17;45.01;;;21.47;;
60336;SDS011;46978;50.288;28.624;2024-01-11T04:33:19;44.47;;;22.09;;
60336;SDS011;46978;50.288;28.624;2024-01-11T04:34:21;46.07;;;22.12;;
60336;SDS011;46978;50.288;28.624;2024-01-11T04:35:22;45.19;;;21.04;;
60336;SDS011;46978;50.288;28.624;2024-01-11T04:36:24;38.93;;;20.10;;
60336;SDS011;46978;50.288;28.624;2024-01-11T04:37:26;40.00;;;21.99;;
60336;SDS011;46978;50.288;28.624;2024-01-11T04:38:28;44.35;;;21.56;;
60336;SDS011;46978;50.288;28.624;2024-01-11T04:39:29;40.96;;;21.40;;
60336;SDS011;46978;50.288;28.624;2024-01-11T04:40:33;38.87;;;19.66;;
60336;SDS011;46978;50.288;28.624;2024-01-11T04:41:35;44.56;;;20.54;;
60336;SDS011;46978;50.288;28.624;2024-01-11T04:42:37;38.15;;;20.30;;
60336;SDS011;46978;50.288;28.624;2024-01-11T04:43:39;42.58;;;21.77;;
60336;SDS011;46978;50.288;28.624;2024-01-11T04:44:42;44.29;;;20.77;;
60336;SDS011;46978;50.288;28.624;2024-01-11T04:45:44;44.09;;;21.84;;
60336;SDS011;46978;50.288;28.624;2024-01-11T04:46:46;52.19;;;22.90;;
60336;SDS011;46978;50.288;28.624;2024-01-11T04:47:49;49.78;;;22.95;;
60336;SDS011;46978;50.288;28.624;2024-01-11T04:48:51;43.64;;;21.86;;
60336;SDS011;46978;50.288;28.624;2024-01-11T04:49:53;41.69;;;20.91;;
60336;SDS011;46978;50.288;28.624;2024-01-11T04:50:55;45.24;;;21.94;;
60336;SDS011;46978;50.288;28.624;2024-01-11T04:51:56;42.81;;;20.64;;
60336;SDS011;46978;50.288;28.624;2024-01-11T04:52:58;42.85;;;21.38;;
60336;SDS011;46978;50.288;28.624;2024-01-11T04:54:00;45.49;;;21.75;;
60336;SDS011;46978;50.288;28.624;2024-01-11T04:55:01;40.74;;;22.18;;
60336;SDS011;46978;50.288;28.624;2024-01-11T04:56:03;45.62;;;21.83;;
60336;SDS011;46978;50.288;28.624;2024-01-11T04:57:05;40.62;;;21.53;;
60336;SDS011;46978;50.288;28.624;2024-01-11T04:58:07;47.66;;;22.43;;
60336;SDS011;46978;50.288;28.624;2024-01-11T04:59:08;42.25;;;23.10;;
60336;SDS011;46978;50.288;28.624;2024-01-11T05:00:11;43.91;;;20.67;;
60336;SDS011;46978;50.288;28.624;2024-01-11T05:01:14;41.39;;;21.47;;
60336;SDS011;46978;50.288;28.624;2024-01-11T05:02:17;40.06;;;21.36;;
60336;SDS011;46978;50.288;28.624;2024-01-11T05:03:18;40.96;;;22.13;;
60336;SDS011;46978;50.288;28.624;2024-01-11T05:04:20;44.98;;;21.06;;
60336;SDS011;46978;50.288;28.624;2024-01-11T05:05:21;43.04;;;20.74;;
60336;SDS011;46978;50.288;28.624;2024-01-11T05:06:23;42.48;;;21.57;;
60336;SDS011;46978;50.288;28.624;2024-01-11T05:07:26;39.71;;;20.80;;
60336;SDS011;46978;50.288;28.624;2024-01-11T05:08:28;44.28;;;22.18;;
60336;SDS011;46978;50.288;28.624;2024-01-11T05:09:30;43.99;;;21.61;;
60336;SDS011;46978;50.288;28.624;2024-01-11T05:10:32;43.79;;;21.18;;
60336;SDS011;46978;50.288;28.624;2024-01-11T05:11:34;42.93;;;21.61;;
60336;SDS011;46978;50.288;28.624;2024-01-11T05:12:36;41.82;;;21.07;;
60336;SDS011;46978;50.288;28.624;2024-01-11T05:13:37;41.88;;;21.77;;
60336;SDS011;46978;50.288;28.624;2024-01-11T05:14:39;43.87;;;21.72;;
60336;SDS011;46978;50.288;28.624;2024-01-11T05:15:40;42.94;;;21.14;;
60336;SDS011;46978;50.288;28.624;2024-01-11T05:16:43;40.98;;;20.95;;
60336;SDS011;46978;50.288;28.624;2024-01-11T05:17:44;44.75;;;20.56;;
60336;SDS011;46978;50.288;28.624;2024-01-11T05:18:46;46.14;;;22.11;;
60336;SDS011;46978;50.288;28.624;2024-01-11T05:19:48;43.17;;;21.27;;
60336;SDS011;46978;50.288;28.624;2024-01-11T05:20:49;39.64;;;20.87;;
60336;SDS011;46978;50.288;28.624;2024-01-11T05:21:51;42.41;;;20.91;;
60336;SDS011;46978;50.288;28.624;2024-01-11T05:22:53;41.73;;;21.71;;
60336;SDS011;46978;50.288;28.624;2024-01-11T05:23:54;41.96;;;21.46;;
60336;SDS011;46978;50.288;28.624;2024-01-11T05:24:56;40.10;;;20.61;;
60336;SDS011;46978;50.288;28.624;2024-01-11T05:25:58;44.16;;;22.53;;
60336;SDS011;46978;50.288;28.624;2024-01-11T05:27:00;45.48;;;21.45;;
60336;SDS011;46978;50.288;28.624;2024-01-11T05:28:01;46.13;;;22.11;;
60336;SDS011;46978;50.288;28.624;2024-01-11T05:29:04;39.43;;;20.34;;
60336;SDS011;46978;50.288;28.624;2024-01-11T05:30:06;43.29;;;21.49;;
60336;SDS011;46978;50.288;28.624;2024-01-11T05:31:14;43.76;;;22.90;;
60336;SDS011;46978;50.288;28.624;2024-01-11T05:32:13;43.15;;;22.16;;
60336;SDS011;46978;50.288;28.624;2024-01-11T05:33:15;45.36;;;23.36;;
60336;SDS011;46978;50.288;28.624;2024-01-11T05:34:17;41.66;;;21.77;;
60336;SDS011;46978;50.288;28.624;2024-01-11T05:35:18;39.26;;;21.43;;
60336;SDS011;46978;50.288;28.624;2024-01-11T05:36:20;42.55;;;21.30;;
60336;SDS011;46978;50.288;28.624;2024-01-11T05:37:22;44.09;;;22.05;;
60336;SDS011;46978;50.288;28.624;2024-01-11T05:38:24;45.29;;;20.50;;
60336;SDS011;46978;50.288;28.624;2024-01-11T05:39:25;41.26;;;20.75;;
60336;SDS011;46978;50.288;28.624;2024-01-11T05:40:27;48.54;;;22.77;;
60336;SDS011;46978;50.288;28.624;2024-01-11T05:41:29;44.21;;;21.40;;
60336;SDS011;46978;50.288;28.624;2024-01-11T05:42:31;41.01;;;20.73;;
60336;SDS011;46978;50.288;28.624;2024-01-11T05:43:32;44.18;;;21.39;;
60336;SDS011;46978;50.288;28.624;2024-01-11T05:44:34;41.70;;;20.46;;
60336;SDS011;46978;50.288;28.624;2024-01-11T05:45:35;44.60;;;21.10;;
60336;SDS011;46978;50.288;28.624;2024-01-11T05:46:37;41.01;;;20.81;;
60336;SDS011;46978;50.288;28.624;2024-01-11T05:47:39;42.02;;;20.58;;
60336;SDS011;46978;50.288;28.624;2024-01-11T05:48:41;42.53;;;21.21;;
60336;SDS011;46978;50.288;28.624;2024-01-11T05:49:43;41.09;;;20.31;;
60336;SDS011;46978;50.288;28.624;2024-01-11T05:50:45;48.22;;;22.49;;
60336;SDS011;46978;50.288;28.624;2024-01-11T05:51:47;42.51;;;21.45;;
60336;SDS011;46978;50.288;28.624;2024-01-11T05:52:49;41.24;;;20.94;;
60336;SDS011;46978;50.288;28.624;2024-01-11T05:53:50;42.76;;;21.61;;
60336;SDS011;46978;50.288;28.624;2024-01-11T05:54:52;45.46;;;22.86;;
60336;SDS011;46978;50.288;28.624;2024-01-11T05:55:53;44.39;;;21.76;;
60336;SDS011;46978;50.288;28.624;2024-01-11T05:56:56;42.91;;;20.91;;
60336;SDS011;46978;50.288;28.624;2024-01-11T05:57:57;40.71;;;20.91;;
60336;SDS011;46978;50.288;28.624;2024-01-11T05:58:59;43.41;;;20.46;;